sensor_id;sensor_type;location;lat;lon;timestamp;temperature;humidity
26599;DHT22;14240;51.064;16.612;2023-06-14T00:01:10;11.30;99.90
26599;DHT22;14240;51.064;16.612;2023-06-14T00:03:39;11.20;99.90
26599;DHT22;14240;51.064;16.612;2023-06-14T00:06:06;11.20;99.90
26599;DHT22;14240;51.064;16.612;2023-06-14T00:08:32;11.10;99.90
26599;DHT22;14240;51.064;16.612;2023-06-14T00:10:58;11.10;99.90
26599;DHT22;14240;51.064;16.612;2023-06-14T00:13:24;11.10;99.90
26599;DHT22;14240;51.064;16.612;2023-06-14T00:15:50;11.00;99.90
26599;DHT22;14240;51.064;16.612;2023-06-14T00:18:21;11.00;99.90
26599;DHT22;14240;51.064;16.612;2023-06-14T00:20:49;11.00;99.90
26599;DHT22;14240;51.064;16.612;2023-06-14T00:23:15;10.90;99.90
26599;DHT22;14240;51.064;16.612;2023-06-14T00:25:43;10.90;99.90
26599;DHT22;14240;51.064;16.612;2023-06-14T00:28:13;10.90;99.90
26599;DHT22;14240;51.064;16.612;2023-06-14T00:30:40;10.80;99.90
26599;DHT22;14240;51.064;16.612;2023-06-14T00:33:06;10.70;99.90
26599;DHT22;14240;51.064;16.612;2023-06-14T00:35:33;10.50;99.90
26599;DHT22;14240;51.064;16.612;2023-06-14T00:37:58;10.70;99.90
26599;DHT22;14240;51.064;16.612;2023-06-14T00:40:25;10.60;99.90
26599;DHT22;14240;51.064;16.612;2023-06-14T00:42:52;10.60;99.90
26599;DHT22;14240;51.064;16.612;2023-06-14T00:45:17;10.50;99.90
26599;DHT22;14240;51.064;16.612;2023-06-14T00:47:43;10.60;99.90
26599;DHT22;14240;51.064;16.612;2023-06-14T00:50:12;10.50;99.90
26599;DHT22;14240;51.064;16.612;2023-06-14T00:52:40;10.40;99.90
26599;DHT22;14240;51.064;16.612;2023-06-14T00:55:06;10.40;99.90
26599;DHT22;14240;51.064;16.612;2023-06-14T00:57:32;10.40;99.90
26599;DHT22;14240;51.064;16.612;2023-06-14T00:59:57;10.40;99.90
26599;DHT22;14240;51.064;16.612;2023-06-14T01:02:23;10.40;99.90
26599;DHT22;14240;51.064;16.612;2023-06-14T01:04:52;10.40;99.90
26599;DHT22;14240;51.064;16.612;2023-06-14T01:07:45;10.30;99.90
26599;DHT22;14240;51.064;16.612;2023-06-14T01:13:33;10.30;99.90
26599;DHT22;14240;51.064;16.612;2023-06-14T01:16:00;10.30;99.90
26599;DHT22;14240;51.064;16.612;2023-06-14T01:18:28;10.20;99.90
26599;DHT22;14240;51.064;16.612;2023-06-14T01:20:55;10.30;99.90
26599;DHT22;14240;51.064;16.612;2023-06-14T01:23:23;10.20;99.90
26599;DHT22;14240;51.064;16.612;2023-06-14T01:25:50;10.20;99.90
26599;DHT22;14240;51.064;16.612;2023-06-14T01:28:21;10.10;99.90
26599;DHT22;14240;51.064;16.612;2023-06-14T01:30:52;10.10;99.90
26599;DHT22;14240;51.064;16.612;2023-06-14T01:33:22;10.00;99.90
26599;DHT22;14240;51.064;16.612;2023-06-14T01:35:51;10.00;99.90
26599;DHT22;14240;51.064;16.612;2023-06-14T01:38:19;9.90;99.90
26599;DHT22;14240;51.064;16.612;2023-06-14T01:40:46;9.80;99.90
26599;DHT22;14240;51.064;16.612;2023-06-14T01:43:14;9.80;99.90
26599;DHT22;14240;51.064;16.612;2023-06-14T01:45:42;9.80;99.90
26599;DHT22;14240;51.064;16.612;2023-06-14T01:48:09;9.70;99.90
26599;DHT22;14240;51.064;16.612;2023-06-14T01:50:35;9.70;99.90
26599;DHT22;14240;51.064;16.612;2023-06-14T01:53:02;9.60;99.90
26599;DHT22;14240;51.064;16.612;2023-06-14T01:55:28;9.60;99.90
26599;DHT22;14240;51.064;16.612;2023-06-14T01:57:55;9.60;99.90
26599;DHT22;14240;51.064;16.612;2023-06-14T02:00:21;9.60;99.90
26599;DHT22;14240;51.064;16.612;2023-06-14T02:02:46;9.60;99.90
26599;DHT22;14240;51.064;16.612;2023-06-14T02:05:13;9.50;99.90
26599;DHT22;14240;51.064;16.612;2023-06-14T02:07:41;9.50;99.90
26599;DHT22;14240;51.064;16.612;2023-06-14T02:10:07;9.50;99.90
26599;DHT22;14240;51.064;16.612;2023-06-14T02:12:33;9.50;99.90
26599;DHT22;14240;51.064;16.612;2023-06-14T02:14:58;9.50;99.90
26599;DHT22;14240;51.064;16.612;2023-06-14T02:17:24;9.60;99.90
26599;DHT22;14240;51.064;16.612;2023-06-14T02:19:51;9.50;99.90
26599;DHT22;14240;51.064;16.612;2023-06-14T02:22:19;9.60;99.90
26599;DHT22;14240;51.064;16.612;2023-06-14T02:24:48;9.50;99.90
26599;DHT22;14240;51.064;16.612;2023-06-14T02:27:14;9.60;99.90
26599;DHT22;14240;51.064;16.612;2023-06-14T02:29:40;9.50;99.90
26599;DHT22;14240;51.064;16.612;2023-06-14T02:32:12;9.50;99.90
26599;DHT22;14240;51.064;16.612;2023-06-14T02:34:39;9.60;99.90
26599;DHT22;14240;51.064;16.612;2023-06-14T02:37:07;9.60;99.90
26599;DHT22;14240;51.064;16.612;2023-06-14T02:39:33;9.60;99.90
26599;DHT22;14240;51.064;16.612;2023-06-14T02:41:59;9.60;99.90
26599;DHT22;14240;51.064;16.612;2023-06-14T02:44:26;9.60;99.90
26599;DHT22;14240;51.064;16.612;2023-06-14T02:46:56;9.80;99.90
26599;DHT22;14240;51.064;16.612;2023-06-14T02:49:26;9.70;99.90
26599;DHT22;14240;51.064;16.612;2023-06-14T02:51:52;9.70;99.90
26599;DHT22;14240;51.064;16.612;2023-06-14T02:54:17;9.80;99.90
26599;DHT22;14240;51.064;16.612;2023-06-14T02:56:43;9.70;99.90
26599;DHT22;14240;51.064;16.612;2023-06-14T02:59:10;9.70;99.90
26599;DHT22;14240;51.064;16.612;2023-06-14T03:01:38;9.70;99.90
26599;DHT22;14240;51.064;16.612;2023-06-14T03:04:09;9.60;99.90
26599;DHT22;14240;51.064;16.612;2023-06-14T03:06:35;9.60;99.90
26599;DHT22;14240;51.064;16.612;2023-06-14T03:09:02;9.60;99.90
26599;DHT22;14240;51.064;16.612;2023-06-14T03:11:30;9.60;99.90
26599;DHT22;14240;51.064;16.612;2023-06-14T03:13:56;9.50;99.90
26599;DHT22;14240;51.064;16.612;2023-06-14T03:16:24;9.60;99.90
26599;DHT22;14240;51.064;16.612;2023-06-14T03:18:54;9.60;99.90
26599;DHT22;14240;51.064;16.612;2023-06-14T03:21:19;9.60;99.90
26599;DHT22;14240;51.064;16.612;2023-06-14T03:23:49;9.60;99.90
26599;DHT22;14240;51.064;16.612;2023-06-14T03:26:15;9.60;99.90
26599;DHT22;14240;51.064;16.612;2023-06-14T03:28:46;9.70;99.90
26599;DHT22;14240;51.064;16.612;2023-06-14T03:31:13;9.70;99.90
26599;DHT22;14240;51.064;16.612;2023-06-14T03:33:39;9.70;99.90
26599;DHT22;14240;51.064;16.612;2023-06-14T03:36:06;9.80;99.90
26599;DHT22;14240;51.064;16.612;2023-06-14T03:38:33;9.80;99.90
26599;DHT22;14240;51.064;16.612;2023-06-14T03:41:00;9.80;99.90
26599;DHT22;14240;51.064;16.612;2023-06-14T03:43:27;9.80;99.90
26599;DHT22;14240;51.064;16.612;2023-06-14T03:45:53;9.80;99.90
26599;DHT22;14240;51.064;16.612;2023-06-14T03:48:18;9.80;99.90
26599;DHT22;14240;51.064;16.612;2023-06-14T03:50:45;9.80;99.90
26599;DHT22;14240;51.064;16.612;2023-06-14T03:53:11;9.80;99.90
26599;DHT22;14240;51.064;16.612;2023-06-14T03:55:37;9.90;99.90
26599;DHT22;14240;51.064;16.612;2023-06-14T03:58:03;9.90;99.90
26599;DHT22;14240;51.064;16.612;2023-06-14T04:00:29;9.80;99.90
26599;DHT22;14240;51.064;16.612;2023-06-14T04:02:56;9.80;99.90
26599;DHT22;14240;51.064;16.612;2023-06-14T04:05:22;9.80;99.90
26599;DHT22;14240;51.064;16.612;2023-06-14T04:07:52;9.80;99.90
26599;DHT22;14240;51.064;16.612;2023-06-14T04:10:21;9.90;99.90
26599;DHT22;14240;51.064;16.612;2023-06-14T04:12:47;9.90;99.90
26599;DHT22;14240;51.064;16.612;2023-06-14T04:15:13;9.90;99.90
26599;DHT22;14240;51.064;16.612;2023-06-14T04:17:39;10.00;99.90
26599;DHT22;14240;51.064;16.612;2023-06-14T04:20:06;10.10;99.90
26599;DHT22;14240;51.064;16.612;2023-06-14T04:22:34;10.10;99.90
26599;DHT22;14240;51.064;16.612;2023-06-14T04:25:04;10.20;99.90
26599;DHT22;14240;51.064;16.612;2023-06-14T04:27:33;10.20;99.90
26599;DHT22;14240;51.064;16.612;2023-06-14T04:30:03;10.30;99.90
26599;DHT22;14240;51.064;16.612;2023-06-14T04:32:34;10.30;99.90
26599;DHT22;14240;51.064;16.612;2023-06-14T04:35:08;10.40;99.90
26599;DHT22;14240;51.064;16.612;2023-06-14T04:37:35;10.40;99.90
26599;DHT22;14240;51.064;16.612;2023-06-14T04:40:07;10.50;99.90
26599;DHT22;14240;51.064;16.612;2023-06-14T04:42:33;10.60;99.90
26599;DHT22;14240;51.064;16.612;2023-06-14T04:44:58;10.70;99.90
26599;DHT22;14240;51.064;16.612;2023-06-14T04:47:24;10.80;99.90
26599;DHT22;14240;51.064;16.612;2023-06-14T04:49:58;10.90;99.90
26599;DHT22;14240;51.064;16.612;2023-06-14T04:52:26;10.90;99.90
26599;DHT22;14240;51.064;16.612;2023-06-14T04:54:54;11.00;99.90
26599;DHT22;14240;51.064;16.612;2023-06-14T04:57:21;11.10;99.90
26599;DHT22;14240;51.064;16.612;2023-06-14T04:59:49;11.20;99.90
26599;DHT22;14240;51.064;16.612;2023-06-14T05:02:23;11.20;99.90
26599;DHT22;14240;51.064;16.612;2023-06-14T05:04:51;11.30;99.90
26599;DHT22;14240;51.064;16.612;2023-06-14T05:07:19;11.40;99.90
26599;DHT22;14240;51.064;16.612;2023-06-14T05:09:45;11.50;99.90
26599;DHT22;14240;51.064;16.612;2023-06-14T05:12:11;11.50;99.90
26599;DHT22;14240;51.064;16.612;2023-06-14T05:14:38;11.50;99.90
26599;DHT22;14240;51.064;16.612;2023-06-14T05:17:05;11.60;99.90
26599;DHT22;14240;51.064;16.612;2023-06-14T05:19:37;11.70;99.90
26599;DHT22;14240;51.064;16.612;2023-06-14T05:22:06;11.80;99.90
26599;DHT22;14240;51.064;16.612;2023-06-14T05:24:32;11.90;99.90
26599;DHT22;14240;51.064;16.612;2023-06-14T05:26:58;12.10;99.90
26599;DHT22;14240;51.064;16.612;2023-06-14T05:29:25;12.30;99.90
26599;DHT22;14240;51.064;16.612;2023-06-14T05:31:54;12.40;99.90
26599;DHT22;14240;51.064;16.612;2023-06-14T05:34:23;12.50;99.90
26599;DHT22;14240;51.064;16.612;2023-06-14T05:36:50;12.60;99.90
26599;DHT22;14240;51.064;16.612;2023-06-14T05:39:16;12.60;99.90
26599;DHT22;14240;51.064;16.612;2023-06-14T05:41:43;12.70;99.90
26599;DHT22;14240;51.064;16.612;2023-06-14T05:44:09;12.80;99.90
26599;DHT22;14240;51.064;16.612;2023-06-14T05:46:35;12.80;99.90
26599;DHT22;14240;51.064;16.612;2023-06-14T05:49:01;12.90;99.90
26599;DHT22;14240;51.064;16.612;2023-06-14T05:51:27;13.00;99.90
26599;DHT22;14240;51.064;16.612;2023-06-14T05:53:53;13.00;99.90
26599;DHT22;14240;51.064;16.612;2023-06-14T05:56:19;13.10;99.90
26599;DHT22;14240;51.064;16.612;2023-06-14T05:58:46;13.10;99.90
26599;DHT22;14240;51.064;16.612;2023-06-14T06:01:12;13.20;99.90
26599;DHT22;14240;51.064;16.612;2023-06-14T06:03:38;13.30;99.90
26599;DHT22;14240;51.064;16.612;2023-06-14T06:06:04;13.30;99.90
26599;DHT22;14240;51.064;16.612;2023-06-14T06:08:30;13.40;99.90
26599;DHT22;14240;51.064;16.612;2023-06-14T06:10:56;13.50;99.90
26599;DHT22;14240;51.064;16.612;2023-06-14T06:13:22;13.50;99.90
26599;DHT22;14240;51.064;16.612;2023-06-14T06:15:48;13.60;99.90
26599;DHT22;14240;51.064;16.612;2023-06-14T06:18:14;13.70;99.90
26599;DHT22;14240;51.064;16.612;2023-06-14T06:20:39;13.80;99.90
26599;DHT22;14240;51.064;16.612;2023-06-14T06:23:05;13.80;99.90
26599;DHT22;14240;51.064;16.612;2023-06-14T06:25:31;13.80;99.90
26599;DHT22;14240;51.064;16.612;2023-06-14T06:27:57;13.90;99.90
26599;DHT22;14240;51.064;16.612;2023-06-14T06:30:23;14.00;99.90
26599;DHT22;14240;51.064;16.612;2023-06-14T06:32:50;14.10;99.90
26599;DHT22;14240;51.064;16.612;2023-06-14T06:35:16;14.20;99.90
26599;DHT22;14240;51.064;16.612;2023-06-14T06:37:42;14.30;99.90
26599;DHT22;14240;51.064;16.612;2023-06-14T06:40:09;14.60;99.90
26599;DHT22;14240;51.064;16.612;2023-06-14T06:42:39;14.70;99.90
26599;DHT22;14240;51.064;16.612;2023-06-14T06:45:05;14.90;99.90
26599;DHT22;14240;51.064;16.612;2023-06-14T06:47:31;15.10;99.90
26599;DHT22;14240;51.064;16.612;2023-06-14T06:49:57;15.30;99.90
26599;DHT22;14240;51.064;16.612;2023-06-14T06:52:22;15.40;99.90
26599;DHT22;14240;51.064;16.612;2023-06-14T06:54:50;15.60;99.90
26599;DHT22;14240;51.064;16.612;2023-06-14T06:57:20;15.60;99.90
26599;DHT22;14240;51.064;16.612;2023-06-14T06:59:49;15.80;99.90
26599;DHT22;14240;51.064;16.612;2023-06-14T07:02:17;15.80;99.90
26599;DHT22;14240;51.064;16.612;2023-06-14T07:04:43;15.90;99.90
26599;DHT22;14240;51.064;16.612;2023-06-14T07:07:09;15.90;99.90
26599;DHT22;14240;51.064;16.612;2023-06-14T07:09:37;16.10;99.90
26599;DHT22;14240;51.064;16.612;2023-06-14T07:12:03;16.20;99.90
26599;DHT22;14240;51.064;16.612;2023-06-14T07:14:29;16.20;99.90
26599;DHT22;14240;51.064;16.612;2023-06-14T07:16:55;16.20;99.90
26599;DHT22;14240;51.064;16.612;2023-06-14T07:19:21;16.30;99.90
26599;DHT22;14240;51.064;16.612;2023-06-14T07:21:46;16.50;99.90
26599;DHT22;14240;51.064;16.612;2023-06-14T07:24:13;16.60;99.90
26599;DHT22;14240;51.064;16.612;2023-06-14T07:26:40;16.60;99.90
26599;DHT22;14240;51.064;16.612;2023-06-14T07:29:08;16.70;99.90
26599;DHT22;14240;51.064;16.612;2023-06-14T07:31:34;16.80;99.90
26599;DHT22;14240;51.064;16.612;2023-06-14T07:34:00;17.00;99.90
26599;DHT22;14240;51.064;16.612;2023-06-14T07:36:28;17.00;99.90
26599;DHT22;14240;51.064;16.612;2023-06-14T07:38:53;17.10;99.90
26599;DHT22;14240;51.064;16.612;2023-06-14T07:41:19;17.30;99.90
26599;DHT22;14240;51.064;16.612;2023-06-14T07:43:45;17.40;99.90
26599;DHT22;14240;51.064;16.612;2023-06-14T07:46:10;17.60;99.90
26599;DHT22;14240;51.064;16.612;2023-06-14T07:48:36;17.70;99.90
26599;DHT22;14240;51.064;16.612;2023-06-14T07:51:02;17.80;99.90
26599;DHT22;14240;51.064;16.612;2023-06-14T07:53:28;17.90;99.90
26599;DHT22;14240;51.064;16.612;2023-06-14T07:55:56;17.90;99.90
26599;DHT22;14240;51.064;16.612;2023-06-14T07:58:22;18.00;99.90
26599;DHT22;14240;51.064;16.612;2023-06-14T08:00:47;18.10;99.90
26599;DHT22;14240;51.064;16.612;2023-06-14T08:03:13;18.10;99.90
26599;DHT22;14240;51.064;16.612;2023-06-14T08:05:41;18.30;99.90
26599;DHT22;14240;51.064;16.612;2023-06-14T08:08:10;18.50;99.90
26599;DHT22;14240;51.064;16.612;2023-06-14T08:10:36;18.60;99.90
26599;DHT22;14240;51.064;16.612;2023-06-14T08:13:02;18.60;99.90
26599;DHT22;14240;51.064;16.612;2023-06-14T08:15:28;18.70;99.90
26599;DHT22;14240;51.064;16.612;2023-06-14T08:17:54;18.80;99.90
26599;DHT22;14240;51.064;16.612;2023-06-14T08:20:20;18.90;99.90
26599;DHT22;14240;51.064;16.612;2023-06-14T08:22:46;18.90;99.90
26599;DHT22;14240;51.064;16.612;2023-06-14T08:25:15;18.90;99.90
26599;DHT22;14240;51.064;16.612;2023-06-14T08:27:42;19.00;99.90
26599;DHT22;14240;51.064;16.612;2023-06-14T08:30:08;19.10;99.90
26599;DHT22;14240;51.064;16.612;2023-06-14T08:32:35;19.20;99.90
26599;DHT22;14240;51.064;16.612;2023-06-14T08:35:01;19.30;99.90
26599;DHT22;14240;51.064;16.612;2023-06-14T08:37:26;19.40;99.90
26599;DHT22;14240;51.064;16.612;2023-06-14T08:39:52;19.50;99.90
26599;DHT22;14240;51.064;16.612;2023-06-14T08:42:19;19.50;99.90
26599;DHT22;14240;51.064;16.612;2023-06-14T08:44:46;19.50;99.90
26599;DHT22;14240;51.064;16.612;2023-06-14T08:47:13;19.60;99.90
26599;DHT22;14240;51.064;16.612;2023-06-14T08:49:46;19.60;99.90
26599;DHT22;14240;51.064;16.612;2023-06-14T08:52:13;19.60;99.90
26599;DHT22;14240;51.064;16.612;2023-06-14T08:54:45;19.60;99.90
26599;DHT22;14240;51.064;16.612;2023-06-14T08:57:11;19.50;99.90
26599;DHT22;14240;51.064;16.612;2023-06-14T08:59:46;19.40;99.90
26599;DHT22;14240;51.064;16.612;2023-06-14T09:02:15;19.40;99.90
26599;DHT22;14240;51.064;16.612;2023-06-14T09:04:43;19.40;99.90
26599;DHT22;14240;51.064;16.612;2023-06-14T09:07:11;19.50;99.90
26599;DHT22;14240;51.064;16.612;2023-06-14T09:09:39;19.50;99.90
26599;DHT22;14240;51.064;16.612;2023-06-14T09:12:08;19.50;99.90
26599;DHT22;14240;51.064;16.612;2023-06-14T09:14:37;19.60;99.90
26599;DHT22;14240;51.064;16.612;2023-06-14T09:17:05;19.60;99.90
26599;DHT22;14240;51.064;16.612;2023-06-14T09:19:31;19.70;99.90
26599;DHT22;14240;51.064;16.612;2023-06-14T09:21:57;19.80;99.90
26599;DHT22;14240;51.064;16.612;2023-06-14T09:24:28;19.80;99.90
26599;DHT22;14240;51.064;16.612;2023-06-14T09:26:54;19.80;99.90
26599;DHT22;14240;51.064;16.612;2023-06-14T09:29:20;19.90;99.90
26599;DHT22;14240;51.064;16.612;2023-06-14T09:31:47;19.90;99.90
26599;DHT22;14240;51.064;16.612;2023-06-14T09:34:13;20.00;99.90
26599;DHT22;14240;51.064;16.612;2023-06-14T09:36:42;20.10;99.90
26599;DHT22;14240;51.064;16.612;2023-06-14T09:39:08;20.10;99.90
26599;DHT22;14240;51.064;16.612;2023-06-14T09:41:37;20.20;99.90
26599;DHT22;14240;51.064;16.612;2023-06-14T09:44:09;20.20;99.90
26599;DHT22;14240;51.064;16.612;2023-06-14T09:46:37;20.20;99.90
26599;DHT22;14240;51.064;16.612;2023-06-14T09:49:04;20.20;99.90
26599;DHT22;14240;51.064;16.612;2023-06-14T09:51:31;20.20;99.90
26599;DHT22;14240;51.064;16.612;2023-06-14T09:54:01;20.20;99.90
26599;DHT22;14240;51.064;16.612;2023-06-14T09:56:38;20.10;99.90
26599;DHT22;14240;51.064;16.612;2023-06-14T09:59:09;20.00;99.90
26599;DHT22;14240;51.064;16.612;2023-06-14T10:01:41;19.90;99.90
26599;DHT22;14240;51.064;16.612;2023-06-14T10:04:09;20.00;99.90
26599;DHT22;14240;51.064;16.612;2023-06-14T10:06:45;19.90;99.90
26599;DHT22;14240;51.064;16.612;2023-06-14T10:09:13;20.00;99.90
26599;DHT22;14240;51.064;16.612;2023-06-14T10:11:40;20.00;99.90
26599;DHT22;14240;51.064;16.612;2023-06-14T10:14:10;20.10;99.90
26599;DHT22;14240;51.064;16.612;2023-06-14T10:16:45;20.20;99.90
26599;DHT22;14240;51.064;16.612;2023-06-14T10:21:51;20.20;99.90
26599;DHT22;14240;51.064;16.612;2023-06-14T10:24:32;20.10;99.90
26599;DHT22;14240;51.064;16.612;2023-06-14T10:26:59;20.10;99.90
26599;DHT22;14240;51.064;16.612;2023-06-14T10:29:25;20.00;99.90
26599;DHT22;14240;51.064;16.612;2023-06-14T10:31:57;20.00;99.90
26599;DHT22;14240;51.064;16.612;2023-06-14T10:34:29;20.10;99.90
26599;DHT22;14240;51.064;16.612;2023-06-14T10:39:28;20.00;99.90
26599;DHT22;14240;51.064;16.612;2023-06-14T10:41:57;20.00;99.90
26599;DHT22;14240;51.064;16.612;2023-06-14T10:46:52;20.20;99.90
26599;DHT22;14240;51.064;16.612;2023-06-14T10:49:19;20.20;99.90
26599;DHT22;14240;51.064;16.612;2023-06-14T10:51:58;20.20;99.90
26599;DHT22;14240;51.064;16.612;2023-06-14T10:54:24;20.10;99.90
26599;DHT22;14240;51.064;16.612;2023-06-14T10:56:53;19.90;99.90
26599;DHT22;14240;51.064;16.612;2023-06-14T10:59:21;19.80;99.90
26599;DHT22;14240;51.064;16.612;2023-06-14T11:04:17;19.70;99.90
26599;DHT22;14240;51.064;16.612;2023-06-14T11:06:50;19.60;99.90
26599;DHT22;14240;51.064;16.612;2023-06-14T11:12:00;19.50;99.90
26599;DHT22;14240;51.064;16.612;2023-06-14T11:14:30;19.40;99.90
26599;DHT22;14240;51.064;16.612;2023-06-14T11:16:57;19.30;99.90
26599;DHT22;14240;51.064;16.612;2023-06-14T11:19:23;19.20;99.90
26599;DHT22;14240;51.064;16.612;2023-06-14T11:21:50;19.20;99.90
26599;DHT22;14240;51.064;16.612;2023-06-14T11:24:19;19.20;99.90
26599;DHT22;14240;51.064;16.612;2023-06-14T11:26:48;19.20;99.90
26599;DHT22;14240;51.064;16.612;2023-06-14T11:29:15;19.10;99.90
26599;DHT22;14240;51.064;16.612;2023-06-14T11:31:44;19.20;99.90
26599;DHT22;14240;51.064;16.612;2023-06-14T11:34:13;19.20;99.90
26599;DHT22;14240;51.064;16.612;2023-06-14T11:36:40;19.40;99.90
26599;DHT22;14240;51.064;16.612;2023-06-14T11:39:06;19.50;99.90
26599;DHT22;14240;51.064;16.612;2023-06-14T11:41:40;19.60;99.90
26599;DHT22;14240;51.064;16.612;2023-06-14T11:44:08;19.70;99.90
26599;DHT22;14240;51.064;16.612;2023-06-14T11:46:35;19.90;99.90
26599;DHT22;14240;51.064;16.612;2023-06-14T11:49:01;19.90;99.90
26599;DHT22;14240;51.064;16.612;2023-06-14T11:51:33;20.10;99.90
26599;DHT22;14240;51.064;16.612;2023-06-14T11:54:00;20.10;99.90
26599;DHT22;14240;51.064;16.612;2023-06-14T11:56:29;20.20;99.90
26599;DHT22;14240;51.064;16.612;2023-06-14T11:58:56;20.10;99.90
26599;DHT22;14240;51.064;16.612;2023-06-14T12:01:24;20.00;99.90
26599;DHT22;14240;51.064;16.612;2023-06-14T12:03:54;19.90;99.90
26599;DHT22;14240;51.064;16.612;2023-06-14T12:06:27;19.80;99.90
26599;DHT22;14240;51.064;16.612;2023-06-14T12:08:56;19.70;99.90
26599;DHT22;14240;51.064;16.612;2023-06-14T12:11:21;19.60;99.90
26599;DHT22;14240;51.064;16.612;2023-06-14T12:13:49;19.50;99.90
26599;DHT22;14240;51.064;16.612;2023-06-14T12:16:15;19.50;99.90
26599;DHT22;14240;51.064;16.612;2023-06-14T12:18:41;19.50;99.90
26599;DHT22;14240;51.064;16.612;2023-06-14T12:21:09;19.60;99.90
26599;DHT22;14240;51.064;16.612;2023-06-14T12:23:49;19.50;99.90
26599;DHT22;14240;51.064;16.612;2023-06-14T12:26:19;19.60;99.90
26599;DHT22;14240;51.064;16.612;2023-06-14T12:28:47;19.50;99.90
26599;DHT22;14240;51.064;16.612;2023-06-14T12:31:14;19.60;99.90
26599;DHT22;14240;51.064;16.612;2023-06-14T12:33:41;19.60;99.90
26599;DHT22;14240;51.064;16.612;2023-06-14T12:36:08;19.60;99.90
26599;DHT22;14240;51.064;16.612;2023-06-14T12:38:35;19.70;99.90
26599;DHT22;14240;51.064;16.612;2023-06-14T12:41:03;19.70;99.90
26599;DHT22;14240;51.064;16.612;2023-06-14T12:43:29;19.70;99.90
26599;DHT22;14240;51.064;16.612;2023-06-14T12:45:55;19.70;99.90
26599;DHT22;14240;51.064;16.612;2023-06-14T12:48:22;19.70;99.90
26599;DHT22;14240;51.064;16.612;2023-06-14T12:50:49;19.70;99.90
26599;DHT22;14240;51.064;16.612;2023-06-14T12:53:14;19.70;99.90
26599;DHT22;14240;51.064;16.612;2023-06-14T12:55:40;19.60;99.90
26599;DHT22;14240;51.064;16.612;2023-06-14T12:58:06;19.60;99.90
26599;DHT22;14240;51.064;16.612;2023-06-14T13:00:32;19.50;99.90
26599;DHT22;14240;51.064;16.612;2023-06-14T13:02:59;19.40;99.90
26599;DHT22;14240;51.064;16.612;2023-06-14T13:05:27;19.10;99.90
26599;DHT22;14240;51.064;16.612;2023-06-14T13:07:57;18.90;99.90
26599;DHT22;14240;51.064;16.612;2023-06-14T13:10:22;18.70;99.90
26599;DHT22;14240;51.064;16.612;2023-06-14T13:12:48;18.60;99.90
26599;DHT22;14240;51.064;16.612;2023-06-14T13:15:14;18.50;99.90
26599;DHT22;14240;51.064;16.612;2023-06-14T13:17:41;18.50;99.90
26599;DHT22;14240;51.064;16.612;2023-06-14T13:20:09;18.40;99.90
26599;DHT22;14240;51.064;16.612;2023-06-14T13:22:35;18.40;99.90
26599;DHT22;14240;51.064;16.612;2023-06-14T13:25:02;18.40;99.90
26599;DHT22;14240;51.064;16.612;2023-06-14T13:27:29;18.50;99.90
26599;DHT22;14240;51.064;16.612;2023-06-14T13:29:55;18.40;99.90
26599;DHT22;14240;51.064;16.612;2023-06-14T13:32:22;18.50;99.90
26599;DHT22;14240;51.064;16.612;2023-06-14T13:34:48;18.40;99.90
26599;DHT22;14240;51.064;16.612;2023-06-14T13:37:13;18.40;99.90
26599;DHT22;14240;51.064;16.612;2023-06-14T13:39:41;18.40;99.90
26599;DHT22;14240;51.064;16.612;2023-06-14T13:42:07;18.40;99.90
26599;DHT22;14240;51.064;16.612;2023-06-14T13:44:32;18.40;99.90
26599;DHT22;14240;51.064;16.612;2023-06-14T13:46:59;18.30;99.90
26599;DHT22;14240;51.064;16.612;2023-06-14T13:49:26;18.40;99.90
26599;DHT22;14240;51.064;16.612;2023-06-14T13:51:52;18.40;99.90
26599;DHT22;14240;51.064;16.612;2023-06-14T13:54:20;18.40;99.90
26599;DHT22;14240;51.064;16.612;2023-06-14T13:56:46;18.40;99.90
26599;DHT22;14240;51.064;16.612;2023-06-14T13:59:12;18.50;99.90
26599;DHT22;14240;51.064;16.612;2023-06-14T14:01:52;18.60;99.90
26599;DHT22;14240;51.064;16.612;2023-06-14T14:04:23;18.70;99.90
26599;DHT22;14240;51.064;16.612;2023-06-14T14:06:50;18.80;99.90
26599;DHT22;14240;51.064;16.612;2023-06-14T14:09:16;18.90;99.90
26599;DHT22;14240;51.064;16.612;2023-06-14T14:48:19;19.40;99.90
26599;DHT22;14240;51.064;16.612;2023-06-14T14:50:45;19.40;99.90
26599;DHT22;14240;51.064;16.612;2023-06-14T14:53:10;19.40;99.90
26599;DHT22;14240;51.064;16.612;2023-06-14T14:55:36;19.40;99.90
26599;DHT22;14240;51.064;16.612;2023-06-14T14:58:02;19.40;99.90
26599;DHT22;14240;51.064;16.612;2023-06-14T15:00:28;19.30;99.90
26599;DHT22;14240;51.064;16.612;2023-06-14T15:02:54;19.30;99.90
26599;DHT22;14240;51.064;16.612;2023-06-14T15:05:20;19.30;99.90
26599;DHT22;14240;51.064;16.612;2023-06-14T15:07:46;19.20;99.90
26599;DHT22;14240;51.064;16.612;2023-06-14T15:10:12;19.20;99.90
26599;DHT22;14240;51.064;16.612;2023-06-14T15:12:37;19.10;99.90
26599;DHT22;14240;51.064;16.612;2023-06-14T15:15:03;19.10;99.90
26599;DHT22;14240;51.064;16.612;2023-06-14T15:17:29;19.00;99.90
26599;DHT22;14240;51.064;16.612;2023-06-14T15:19:55;19.00;99.90
26599;DHT22;14240;51.064;16.612;2023-06-14T15:22:21;19.00;99.90
26599;DHT22;14240;51.064;16.612;2023-06-14T15:24:47;18.90;99.90
26599;DHT22;14240;51.064;16.612;2023-06-14T15:27:13;18.90;99.90
26599;DHT22;14240;51.064;16.612;2023-06-14T15:29:42;18.90;99.90
26599;DHT22;14240;51.064;16.612;2023-06-14T15:32:08;18.90;99.90
26599;DHT22;14240;51.064;16.612;2023-06-14T15:34:34;18.90;99.90
26599;DHT22;14240;51.064;16.612;2023-06-14T15:50:36;19.00;99.90
26599;DHT22;14240;51.064;16.612;2023-06-14T15:53:02;19.00;99.90
26599;DHT22;14240;51.064;16.612;2023-06-14T15:55:28;19.10;99.90
26599;DHT22;14240;51.064;16.612;2023-06-14T15:57:54;19.20;99.90
26599;DHT22;14240;51.064;16.612;2023-06-14T16:00:34;19.30;99.90
26599;DHT22;14240;51.064;16.612;2023-06-14T16:06:22;19.30;99.90
26599;DHT22;14240;51.064;16.612;2023-06-14T16:08:48;19.30;99.90
26599;DHT22;14240;51.064;16.612;2023-06-14T16:11:14;19.20;99.90
26599;DHT22;14240;51.064;16.612;2023-06-14T16:13:41;19.20;99.90
26599;DHT22;14240;51.064;16.612;2023-06-14T16:16:10;19.30;99.90
26599;DHT22;14240;51.064;16.612;2023-06-14T16:18:38;19.20;99.90
26599;DHT22;14240;51.064;16.612;2023-06-14T16:21:06;19.20;99.90
26599;DHT22;14240;51.064;16.612;2023-06-14T16:23:34;19.10;99.90
26599;DHT22;14240;51.064;16.612;2023-06-14T16:26:00;19.10;99.90
26599;DHT22;14240;51.064;16.612;2023-06-14T16:28:25;19.00;99.90